RYR4RG EGNX-LFMK
Flight info
| Callsign | RYR4RG |
|---|---|
| Flight time | 1h 37m |
| Altitude | 37000 |
| Route | DTY UM605 SILVA Q41 COWLY UT71 VAPID UN859 SOPIL DCT BALAN DCT EVPOK DCT NARAK DCT GAI |
| Aircraft | B38M/M-SDE1FGHILORVWXY/HB1 |
Departure
| Time | 2026-05-04 14:49 |
|---|---|
| Airport | East Midlands Airport (EGNX) |
Arrival
| Time | 2026-05-04 16:26 |
|---|---|
| Airport | Carcassonne Salvaza Airport (LFMK) |
| Time | Latitude | Longitude | Altitude | Speed | Heading |
|---|---|---|---|---|---|
| 2026-05-04 14:30 | 52.82731 | -1.33503 | 303 ft | 0 kts | 88° |
| 2026-05-04 14:39 | 52.82731 | -1.33506 | 303 ft | 1 kts | 88° |
| 2026-05-04 14:39 | 52.82730 | -1.33532 | 304 ft | 2 kts | 88° |
| 2026-05-04 14:40 | 52.82720 | -1.33584 | 303 ft | 3 kts | 31° |
| 2026-05-04 14:40 | 52.82703 | -1.33592 | 303 ft | 3 kts | 358° |
| 2026-05-04 14:40 | 52.82686 | -1.33589 | 303 ft | 1 kts | 352° |
| 2026-05-04 14:40 | 52.82680 | -1.33588 | 303 ft | 0 kts | 352° |
| 2026-05-04 14:43 | 52.82684 | -1.33589 | 303 ft | 3 kts | 352° |
| 2026-05-04 14:44 | 52.82745 | -1.33602 | 306 ft | 16 kts | 352° |
| 2026-05-04 14:44 | 52.82878 | -1.33611 | 306 ft | 17 kts | 360° |
| 2026-05-04 14:44 | 52.82907 | -1.33596 | 308 ft | 1 kts | 44° |
| 2026-05-04 14:44 | 52.82915 | -1.33565 | 307 ft | 7 kts | 74° |
| 2026-05-04 14:45 | 52.82919 | -1.33423 | 310 ft | 17 kts | 89° |
| 2026-05-04 14:45 | 52.82924 | -1.33160 | 304 ft | 28 kts | 88° |
| 2026-05-04 14:45 | 52.82932 | -1.32784 | 306 ft | 37 kts | 88° |
| 2026-05-04 14:45 | 52.82940 | -1.32353 | 303 ft | 36 kts | 88° |
| 2026-05-04 14:46 | 52.82947 | -1.31928 | 307 ft | 33 kts | 88° |
| 2026-05-04 14:46 | 52.82952 | -1.31579 | 303 ft | 31 kts | 88° |
| 2026-05-04 14:46 | 52.82960 | -1.31226 | 304 ft | 31 kts | 87° |
| 2026-05-04 14:46 | 52.82966 | -1.30866 | 303 ft | 32 kts | 88° |
| 2026-05-04 14:47 | 52.83015 | -1.30698 | 303 ft | 15 kts | 28° |
| 2026-05-04 14:47 | 52.83112 | -1.30692 | 305 ft | 14 kts | 349° |
| 2026-05-04 14:47 | 52.83138 | -1.30749 | 302 ft | 4 kts | 268° |
| 2026-05-04 14:47 | 52.83138 | -1.30750 | 302 ft | 0 kts | 268° |
| 2026-05-04 14:48 | 52.83136 | -1.30869 | 305 ft | 37 kts | 268° |
| 2026-05-04 14:48 | 52.83120 | -1.31738 | 312 ft | 112 kts | 268° |
| 2026-05-04 14:48 | 52.83090 | -1.33393 | 311 ft | 173 kts | 268° |
| 2026-05-04 14:48 | 52.83032 | -1.35560 | 769 ft | 191 kts | 266° |
| 2026-05-04 14:49 | 52.82973 | -1.37668 | 1948 ft | 177 kts | 268° |
| 2026-05-04 14:49 | 52.82933 | -1.39793 | 2616 ft | 196 kts | 268° |
| 2026-05-04 14:49 | 52.82894 | -1.42163 | 3169 ft | 217 kts | 268° |
| 2026-05-04 14:49 | 52.82828 | -1.44797 | 3651 ft | 244 kts | 261° |
| 2026-05-04 14:50 | 52.82115 | -1.47283 | 4734 ft | 242 kts | 229° |
| 2026-05-04 14:50 | 52.80740 | -1.49010 | 5502 ft | 259 kts | 206° |
| 2026-05-04 14:50 | 52.78952 | -1.49665 | 6358 ft | 269 kts | 178° |
| 2026-05-04 14:50 | 52.77136 | -1.48877 | 7368 ft | 275 kts | 158° |
| 2026-05-04 14:51 | 52.75345 | -1.47645 | 8258 ft | 281 kts | 160° |
| 2026-05-04 14:51 | 52.73529 | -1.46452 | 9293 ft | 282 kts | 160° |
| 2026-05-04 14:51 | 52.71686 | -1.45257 | 10165 ft | 287 kts | 160° |
| 2026-05-04 14:51 | 52.69773 | -1.44034 | 10742 ft | 304 kts | 160° |
| 2026-05-04 14:52 | 52.67761 | -1.42767 | 11146 ft | 324 kts | 160° |
| 2026-05-04 14:52 | 52.65580 | -1.41398 | 11649 ft | 339 kts | 160° |
| 2026-05-04 14:52 | 52.63347 | -1.39991 | 12295 ft | 347 kts | 160° |
| 2026-05-04 14:52 | 52.61118 | -1.38576 | 13150 ft | 350 kts | 160° |
| 2026-05-04 14:53 | 52.58828 | -1.37121 | 13894 ft | 355 kts | 160° |
| 2026-05-04 14:53 | 52.56520 | -1.35654 | 14603 ft | 358 kts | 160° |
| 2026-05-04 14:53 | 52.54184 | -1.34169 | 15300 ft | 362 kts | 160° |
| 2026-05-04 14:53 | 52.51826 | -1.32673 | 15985 ft | 365 kts | 160° |
| 2026-05-04 14:54 | 52.49450 | -1.31167 | 16712 ft | 366 kts | 160° |
| 2026-05-04 14:54 | 52.47069 | -1.29657 | 17384 ft | 370 kts | 160° |
| 2026-05-04 14:54 | 52.44657 | -1.28131 | 18032 ft | 373 kts | 160° |
| 2026-05-04 14:54 | 52.42224 | -1.26594 | 18635 ft | 376 kts | 160° |
| 2026-05-04 14:55 | 52.39775 | -1.25048 | 19209 ft | 379 kts | 160° |
| 2026-05-04 14:55 | 52.37309 | -1.23492 | 19771 ft | 381 kts | 160° |
| 2026-05-04 14:55 | 52.34824 | -1.21926 | 20319 ft | 384 kts | 160° |
| 2026-05-04 14:55 | 52.32331 | -1.20357 | 20861 ft | 387 kts | 160° |
| 2026-05-04 14:56 | 52.29810 | -1.18772 | 21411 ft | 389 kts | 160° |
| 2026-05-04 14:56 | 52.27274 | -1.17179 | 21963 ft | 392 kts | 160° |
| 2026-05-04 14:56 | 52.24718 | -1.15575 | 22475 ft | 396 kts | 160° |
| 2026-05-04 14:56 | 52.22143 | -1.13962 | 22992 ft | 398 kts | 160° |
| 2026-05-04 14:57 | 52.19541 | -1.12333 | 23489 ft | 402 kts | 160° |
| 2026-05-04 14:57 | 52.16870 | -1.10984 | 23898 ft | 403 kts | 170° |
| 2026-05-04 14:57 | 52.14109 | -1.10103 | 24319 ft | 405 kts | 169° |
| 2026-05-04 14:57 | 52.11339 | -1.09191 | 24732 ft | 408 kts | 169° |
| 2026-05-04 14:58 | 52.08561 | -1.08281 | 25149 ft | 410 kts | 169° |
| 2026-05-04 14:58 | 52.05763 | -1.07367 | 25558 ft | 412 kts | 170° |
| 2026-05-04 14:58 | 52.02944 | -1.06447 | 25970 ft | 414 kts | 170° |
| 2026-05-04 14:58 | 52.00123 | -1.05527 | 26417 ft | 414 kts | 170° |
| 2026-05-04 14:59 | 51.97287 | -1.04604 | 26793 ft | 417 kts | 170° |
| 2026-05-04 14:59 | 51.94443 | -1.03679 | 27184 ft | 419 kts | 170° |
| 2026-05-04 14:59 | 51.88703 | -1.01816 | 27942 ft | 423 kts | 170° |
| 2026-05-04 15:00 | 51.85814 | -1.00959 | 28297 ft | 424 kts | 176° |
| 2026-05-04 15:00 | 51.82888 | -1.01160 | 28661 ft | 422 kts | 190° |
| 2026-05-04 15:00 | 51.79974 | -1.01863 | 28962 ft | 425 kts | 189° |
| 2026-05-04 15:01 | 51.74136 | -1.03290 | 29848 ft | 424 kts | 189° |
| 2026-05-04 15:01 | 51.71211 | -1.04033 | 30133 ft | 427 kts | 189° |
| 2026-05-04 15:01 | 51.68274 | -1.04784 | 30416 ft | 429 kts | 189° |
| 2026-05-04 15:01 | 51.65318 | -1.05540 | 30651 ft | 432 kts | 189° |
| 2026-05-04 15:02 | 51.62341 | -1.06289 | 30891 ft | 434 kts | 187° |
| 2026-05-04 15:02 | 51.59332 | -1.06367 | 31136 ft | 436 kts | 178° |
| 2026-05-04 15:02 | 51.56295 | -1.06183 | 31429 ft | 437 kts | 179° |
| 2026-05-04 15:02 | 51.53261 | -1.06028 | 31851 ft | 435 kts | 179° |
| 2026-05-04 15:03 | 51.50242 | -1.05865 | 32213 ft | 435 kts | 179° |
| 2026-05-04 15:03 | 51.47217 | -1.05701 | 32521 ft | 435 kts | 179° |
| 2026-05-04 15:03 | 51.44186 | -1.05535 | 32844 ft | 435 kts | 179° |
| 2026-05-04 15:03 | 51.41156 | -1.05369 | 33145 ft | 436 kts | 179° |
| 2026-05-04 15:04 | 51.38129 | -1.05204 | 33463 ft | 436 kts | 179° |
| 2026-05-04 15:04 | 51.35108 | -1.05039 | 33748 ft | 436 kts | 178° |
| 2026-05-04 15:04 | 51.32073 | -1.04873 | 34042 ft | 436 kts | 178° |
| 2026-05-04 15:04 | 51.29056 | -1.04710 | 34419 ft | 433 kts | 178° |
| 2026-05-04 15:05 | 51.26059 | -1.04308 | 34636 ft | 434 kts | 167° |
| 2026-05-04 15:05 | 51.23216 | -1.02716 | 34897 ft | 434 kts | 157° |
| 2026-05-04 15:05 | 51.20437 | -1.00786 | 35043 ft | 437 kts | 158° |
| 2026-05-04 15:05 | 51.17651 | -0.98823 | 35254 ft | 438 kts | 157° |
| 2026-05-04 15:06 | 51.14869 | -0.96833 | 35477 ft | 439 kts | 157° |
| 2026-05-04 15:06 | 51.12101 | -0.94834 | 35687 ft | 439 kts | 156° |
| 2026-05-04 15:06 | 51.09320 | -0.92820 | 35939 ft | 439 kts | 157° |
| 2026-05-04 15:07 | 51.03760 | -0.88798 | 36373 ft | 440 kts | 157° |
| 2026-05-04 15:07 | 51.00976 | -0.86787 | 36568 ft | 440 kts | 157° |
| 2026-05-04 15:07 | 50.98184 | -0.84773 | 36766 ft | 441 kts | 157° |
| 2026-05-04 15:07 | 50.95392 | -0.82762 | 36947 ft | 441 kts | 157° |
| 2026-05-04 15:08 | 50.92592 | -0.80748 | 37001 ft | 443 kts | 157° |
| 2026-05-04 15:08 | 50.87003 | -0.76734 | 36987 ft | 441 kts | 157° |
| 2026-05-04 15:09 | 50.81723 | -0.71777 | 36998 ft | 443 kts | 149° |
| 2026-05-04 15:09 | 50.76538 | -0.66516 | 36994 ft | 443 kts | 149° |
| 2026-05-04 15:10 | 50.68765 | -0.58630 | 36996 ft | 443 kts | 149° |
| 2026-05-04 15:11 | 50.61025 | -0.50806 | 36995 ft | 443 kts | 149° |
| 2026-05-04 15:11 | 50.55827 | -0.45570 | 36996 ft | 443 kts | 149° |
| 2026-05-04 15:12 | 50.50632 | -0.40351 | 36996 ft | 443 kts | 149° |
| 2026-05-04 15:12 | 50.45442 | -0.35151 | 36991 ft | 443 kts | 149° |
| 2026-05-04 15:13 | 50.40239 | -0.29951 | 36992 ft | 443 kts | 149° |
| 2026-05-04 15:13 | 50.35037 | -0.24766 | 36989 ft | 443 kts | 149° |
| 2026-05-04 15:14 | 50.29834 | -0.19594 | 36984 ft | 443 kts | 149° |
| 2026-05-04 15:14 | 50.24635 | -0.14439 | 36984 ft | 443 kts | 149° |
| 2026-05-04 15:15 | 50.19427 | -0.09288 | 36982 ft | 443 kts | 149° |
| 2026-05-04 15:15 | 50.15093 | -0.05011 | 36988 ft | 443 kts | 149° |
| 2026-05-04 15:16 | 50.09783 | -0.00175 | 36946 ft | 440 kts | 162° |
| 2026-05-04 15:16 | 50.06853 | 0.01103 | 37006 ft | 438 kts | 166° |
| 2026-05-04 15:17 | 49.97978 | 0.04736 | 36987 ft | 441 kts | 167° |
| 2026-05-04 15:17 | 49.89070 | 0.08241 | 36979 ft | 440 kts | 167° |
| 2026-05-04 15:18 | 49.83140 | 0.10563 | 36985 ft | 440 kts | 167° |
| 2026-05-04 15:19 | 49.74251 | 0.14031 | 36985 ft | 440 kts | 167° |
| 2026-05-04 15:19 | 49.65370 | 0.17549 | 36993 ft | 439 kts | 167° |
| 2026-05-04 15:20 | 49.59450 | 0.19934 | 36996 ft | 439 kts | 167° |
| 2026-05-04 15:20 | 49.53591 | 0.22286 | 36993 ft | 439 kts | 167° |
| 2026-05-04 15:21 | 49.47678 | 0.24654 | 36992 ft | 439 kts | 167° |
| 2026-05-04 15:22 | 49.38810 | 0.28195 | 37000 ft | 439 kts | 167° |
| 2026-05-04 15:22 | 49.29959 | 0.31769 | 36995 ft | 439 kts | 166° |
| 2026-05-04 15:23 | 49.24077 | 0.34259 | 36983 ft | 438 kts | 166° |
| 2026-05-04 15:23 | 49.18192 | 0.36733 | 36969 ft | 439 kts | 166° |
| 2026-05-04 15:24 | 49.06427 | 0.41660 | 36965 ft | 439 kts | 166° |
| 2026-05-04 15:25 | 49.00543 | 0.44115 | 36946 ft | 438 kts | 167° |
| 2026-05-04 15:26 | 48.91741 | 0.47776 | 36966 ft | 437 kts | 167° |
| 2026-05-04 15:26 | 48.82944 | 0.51422 | 36965 ft | 437 kts | 167° |
| 2026-05-04 15:27 | 48.74144 | 0.54938 | 36966 ft | 437 kts | 167° |
| 2026-05-04 15:28 | 48.65318 | 0.58405 | 36963 ft | 437 kts | 167° |
| 2026-05-04 15:29 | 48.56552 | 0.61839 | 36960 ft | 436 kts | 167° |
| 2026-05-04 15:30 | 48.36038 | 0.70116 | 36951 ft | 435 kts | 167° |
| 2026-05-04 15:31 | 48.27272 | 0.73652 | 36952 ft | 435 kts | 167° |
| 2026-05-04 15:32 | 48.12642 | 0.79422 | 36944 ft | 434 kts | 167° |
| 2026-05-04 15:34 | 47.98043 | 0.85143 | 36919 ft | 434 kts | 168° |
| 2026-05-04 15:34 | 47.89279 | 0.88562 | 36935 ft | 434 kts | 168° |
| 2026-05-04 15:35 | 47.80523 | 0.91964 | 36936 ft | 434 kts | 168° |
| 2026-05-04 15:36 | 47.71777 | 0.95348 | 36929 ft | 432 kts | 168° |
| 2026-05-04 15:36 | 47.65954 | 0.97595 | 36928 ft | 432 kts | 168° |
| 2026-05-04 15:37 | 47.60183 | 0.99817 | 36925 ft | 432 kts | 168° |
| 2026-05-04 15:37 | 47.54364 | 1.02052 | 36927 ft | 432 kts | 168° |
| 2026-05-04 15:38 | 47.48556 | 1.04278 | 36920 ft | 431 kts | 168° |
| 2026-05-04 15:38 | 47.42720 | 1.06270 | 36904 ft | 427 kts | 179° |
| 2026-05-04 15:39 | 47.36813 | 1.06245 | 36890 ft | 426 kts | 182° |
| 2026-05-04 15:40 | 47.27931 | 1.06091 | 36920 ft | 425 kts | 183° |
| 2026-05-04 15:40 | 47.22013 | 1.05953 | 36922 ft | 425 kts | 183° |
| 2026-05-04 15:41 | 47.16097 | 1.05815 | 36920 ft | 425 kts | 183° |
| 2026-05-04 15:41 | 47.10214 | 1.05678 | 36917 ft | 423 kts | 183° |
| 2026-05-04 15:42 | 47.04326 | 1.05540 | 36919 ft | 423 kts | 183° |
| 2026-05-04 15:42 | 46.98438 | 1.05298 | 36920 ft | 423 kts | 184° |
| 2026-05-04 15:43 | 46.92557 | 1.05047 | 36922 ft | 422 kts | 184° |
| 2026-05-04 15:43 | 46.86733 | 1.04802 | 36921 ft | 422 kts | 184° |
| 2026-05-04 15:44 | 46.80861 | 1.04555 | 36924 ft | 422 kts | 184° |
| 2026-05-04 15:44 | 46.74990 | 1.04309 | 36922 ft | 422 kts | 184° |
| 2026-05-04 15:45 | 46.69115 | 1.04064 | 36919 ft | 422 kts | 184° |
| 2026-05-04 15:45 | 46.63248 | 1.03819 | 36920 ft | 422 kts | 184° |
| 2026-05-04 15:46 | 46.57388 | 1.03575 | 36918 ft | 422 kts | 184° |
| 2026-05-04 15:46 | 46.51517 | 1.03511 | 36896 ft | 424 kts | 174° |
| 2026-05-04 15:47 | 46.45744 | 1.05356 | 36882 ft | 426 kts | 171° |
| 2026-05-04 15:47 | 46.39958 | 1.07242 | 36922 ft | 427 kts | 170° |
| 2026-05-04 15:48 | 46.34183 | 1.09163 | 36914 ft | 426 kts | 170° |
| 2026-05-04 15:48 | 46.25536 | 1.12040 | 36914 ft | 425 kts | 170° |
| 2026-05-04 15:49 | 46.19775 | 1.13952 | 36910 ft | 425 kts | 170° |
| 2026-05-04 15:49 | 46.14011 | 1.15862 | 36910 ft | 424 kts | 170° |
| 2026-05-04 15:50 | 46.08281 | 1.17755 | 36908 ft | 423 kts | 170° |
| 2026-05-04 15:50 | 46.02546 | 1.19646 | 36905 ft | 423 kts | 171° |
| 2026-05-04 15:51 | 45.96816 | 1.21532 | 36914 ft | 423 kts | 171° |
| 2026-05-04 15:51 | 45.91079 | 1.23416 | 36905 ft | 423 kts | 171° |
| 2026-05-04 15:52 | 45.85355 | 1.25292 | 36913 ft | 422 kts | 171° |
| 2026-05-04 15:52 | 45.79662 | 1.27153 | 36913 ft | 422 kts | 171° |
| 2026-05-04 15:53 | 45.73931 | 1.29024 | 36906 ft | 423 kts | 171° |
| 2026-05-04 15:53 | 45.68197 | 1.30891 | 36919 ft | 423 kts | 171° |
| 2026-05-04 15:54 | 45.62470 | 1.32752 | 36918 ft | 423 kts | 171° |
| 2026-05-04 15:54 | 45.56732 | 1.34613 | 36914 ft | 423 kts | 171° |
| 2026-05-04 15:55 | 45.50990 | 1.36471 | 36915 ft | 423 kts | 171° |
| 2026-05-04 15:55 | 45.45249 | 1.38325 | 36918 ft | 423 kts | 171° |
| 2026-05-04 15:56 | 45.39523 | 1.40170 | 36918 ft | 423 kts | 171° |
| 2026-05-04 15:56 | 45.33783 | 1.42015 | 36915 ft | 423 kts | 171° |
| 2026-05-04 15:57 | 45.28042 | 1.43858 | 36918 ft | 423 kts | 171° |
| 2026-05-04 15:57 | 45.22305 | 1.45695 | 36911 ft | 423 kts | 171° |
| 2026-05-04 15:58 | 45.16566 | 1.47529 | 36909 ft | 423 kts | 171° |
| 2026-05-04 15:58 | 45.10849 | 1.49352 | 36907 ft | 421 kts | 171° |
| 2026-05-04 15:59 | 45.05127 | 1.51174 | 36646 ft | 421 kts | 171° |
| 2026-05-04 15:59 | 45.02236 | 1.52093 | 35695 ft | 425 kts | 171° |
| 2026-05-04 15:59 | 44.99386 | 1.52997 | 35368 ft | 416 kts | 171° |
| 2026-05-04 16:00 | 44.96566 | 1.53891 | 34706 ft | 415 kts | 170° |
| 2026-05-04 16:00 | 44.93753 | 1.54783 | 34112 ft | 414 kts | 170° |
| 2026-05-04 16:00 | 44.90963 | 1.55667 | 33335 ft | 410 kts | 170° |
| 2026-05-04 16:00 | 44.88170 | 1.56550 | 32005 ft | 413 kts | 169° |
| 2026-05-04 16:01 | 44.85349 | 1.57442 | 30696 ft | 419 kts | 169° |
| 2026-05-04 16:01 | 44.82512 | 1.58336 | 29943 ft | 411 kts | 168° |
| 2026-05-04 16:01 | 44.79786 | 1.59195 | 29610 ft | 393 kts | 168° |
| 2026-05-04 16:01 | 44.77184 | 1.60013 | 29121 ft | 389 kts | 169° |
| 2026-05-04 16:02 | 44.74503 | 1.60856 | 28554 ft | 400 kts | 169° |
| 2026-05-04 16:02 | 44.71763 | 1.61717 | 28000 ft | 405 kts | 169° |
| 2026-05-04 16:02 | 44.66289 | 1.63436 | 26992 ft | 402 kts | 169° |
| 2026-05-04 16:03 | 44.63569 | 1.64288 | 26452 ft | 398 kts | 169° |
| 2026-05-04 16:03 | 44.60877 | 1.65132 | 25950 ft | 395 kts | 169° |
| 2026-05-04 16:03 | 44.58197 | 1.65970 | 25437 ft | 393 kts | 169° |
| 2026-05-04 16:03 | 44.55541 | 1.66800 | 24944 ft | 390 kts | 169° |
| 2026-05-04 16:04 | 44.52893 | 1.67627 | 24434 ft | 389 kts | 169° |
| 2026-05-04 16:04 | 44.47637 | 1.69265 | 23427 ft | 386 kts | 169° |
| 2026-05-04 16:04 | 44.45020 | 1.70081 | 22852 ft | 384 kts | 169° |
| 2026-05-04 16:05 | 44.42435 | 1.70885 | 22352 ft | 381 kts | 169° |
| 2026-05-04 16:05 | 44.39859 | 1.71686 | 21872 ft | 377 kts | 169° |
| 2026-05-04 16:05 | 44.34784 | 1.73261 | 20961 ft | 371 kts | 169° |
| 2026-05-04 16:06 | 44.33083 | 1.73789 | 20669 ft | 369 kts | 169° |
| 2026-05-04 16:06 | 44.25629 | 1.75689 | 19323 ft | 362 kts | 173° |
| 2026-05-04 16:07 | 44.23153 | 1.76234 | 18915 ft | 359 kts | 172° |
| 2026-05-04 16:07 | 44.15828 | 1.77868 | 17617 ft | 353 kts | 173° |
| 2026-05-04 16:08 | 44.13417 | 1.78407 | 17201 ft | 349 kts | 173° |
| 2026-05-04 16:08 | 44.06313 | 1.79992 | 16013 ft | 340 kts | 172° |
| 2026-05-04 16:09 | 44.01674 | 1.81026 | 15244 ft | 335 kts | 173° |
| 2026-05-04 16:09 | 43.97097 | 1.82044 | 14489 ft | 331 kts | 173° |
| 2026-05-04 16:10 | 43.92530 | 1.82729 | 13686 ft | 333 kts | 176° |
| 2026-05-04 16:11 | 43.85551 | 1.83601 | 12496 ft | 335 kts | 176° |
| 2026-05-04 16:11 | 43.83230 | 1.83898 | 12113 ft | 334 kts | 176° |
| 2026-05-04 16:12 | 43.76365 | 1.84776 | 10975 ft | 327 kts | 176° |
| 2026-05-04 16:12 | 43.69847 | 1.85609 | 10492 ft | 299 kts | 176° |
| 2026-05-04 16:13 | 43.65954 | 1.86106 | 10214 ft | 264 kts | 176° |
| 2026-05-04 16:13 | 43.62440 | 1.86552 | 9982 ft | 258 kts | 177° |
| 2026-05-04 16:14 | 43.58742 | 1.87023 | 9427 ft | 272 kts | 176° |
| 2026-05-04 16:14 | 43.54944 | 1.87506 | 8407 ft | 281 kts | 176° |
| 2026-05-04 16:15 | 43.48968 | 1.88081 | 6456 ft | 287 kts | 190° |
| 2026-05-04 16:16 | 43.45645 | 1.85303 | 5167 ft | 284 kts | 225° |
| 2026-05-04 16:16 | 43.40779 | 1.82703 | 4650 ft | 236 kts | 175° |
| 2026-05-04 16:17 | 43.37609 | 1.83139 | 4548 ft | 227 kts | 175° |
| 2026-05-04 16:18 | 43.33252 | 1.85473 | 4258 ft | 226 kts | 153° |
| 2026-05-04 16:18 | 43.31850 | 1.86445 | 4105 ft | 225 kts | 153° |
| 2026-05-04 16:19 | 43.27661 | 1.89303 | 3655 ft | 223 kts | 153° |
| 2026-05-04 16:19 | 43.25149 | 1.91601 | 3481 ft | 213 kts | 120° |
| 2026-05-04 16:20 | 43.24360 | 1.96636 | 3496 ft | 161 kts | 98° |
| 2026-05-04 16:20 | 43.24083 | 1.99718 | 3500 ft | 165 kts | 98° |
| 2026-05-04 16:21 | 43.23692 | 2.04374 | 3489 ft | 164 kts | 97° |
| 2026-05-04 16:22 | 43.23443 | 2.07481 | 3472 ft | 164 kts | 97° |
| 2026-05-04 16:22 | 43.23074 | 2.12112 | 2903 ft | 154 kts | 97° |
| 2026-05-04 16:23 | 43.22758 | 2.16120 | 2363 ft | 133 kts | 97° |
| 2026-05-04 16:24 | 43.22356 | 2.21175 | 1595 ft | 132 kts | 96° |
| 2026-05-04 16:25 | 43.22152 | 2.23723 | 1226 ft | 134 kts | 95° |
| 2026-05-04 16:26 | 43.21753 | 2.28751 | 579 ft | 128 kts | 94° |
| 2026-05-04 16:26 | 43.21556 | 2.31103 | 423 ft | 3 kts | 131° |
| 2026-05-04 16:27 | 43.21487 | 2.31111 | 420 ft | 0 kts | 190° |
| 2026-05-04 16:28 | 43.21475 | 2.31088 | 421 ft | 5 kts | 266° |
| 2026-05-04 16:28 | 43.21484 | 2.30926 | 414 ft | 0 kts | 276° |
| 2026-05-04 16:29 | 43.21461 | 2.30721 | 423 ft | 10 kts | 232° |
| 2026-05-04 16:30 | 43.21401 | 2.30640 | 423 ft | 5 kts | 188° |
| 2026-05-04 16:31 | 43.21387 | 2.30627 | 418 ft | 1 kts | 252° |
| 2026-05-04 16:31 | 43.21399 | 2.30616 | 417 ft | 0 kts | 326° |